createdAt,value
2023-05-16T00:01:51.715Z,9.52
2023-05-16T00:04:20.315Z,9.48
2023-05-16T00:06:48.672Z,9.44
2023-05-16T00:09:17.623Z,9.41
2023-05-16T00:11:48.401Z,9.38
2023-05-16T00:14:16.806Z,9.33
2023-05-16T00:16:44.962Z,9.28
2023-05-16T00:19:13.892Z,9.24
2023-05-16T00:21:42.418Z,9.18
2023-05-16T00:24:10.616Z,9.13
2023-05-16T00:26:39.008Z,9.07
2023-05-16T00:29:07.425Z,9.02
2023-05-16T00:31:35.924Z,8.96
2023-05-16T00:34:04.487Z,8.92
2023-05-16T00:36:33.174Z,8.88
2023-05-16T00:39:01.482Z,8.87
2023-05-16T00:41:30.767Z,8.87
2023-05-16T00:43:59.118Z,8.88
2023-05-16T00:46:27.266Z,8.87
2023-05-16T00:48:55.578Z,8.85
2023-05-16T00:51:24.480Z,8.81
2023-05-16T00:53:53.717Z,8.78
2023-05-16T00:56:22.639Z,8.77
2023-05-16T00:58:51.201Z,8.79
2023-05-16T01:01:23.867Z,8.78
2023-05-16T01:03:55.337Z,8.74
2023-05-16T01:06:23.909Z,8.72
2023-05-16T01:08:52.244Z,8.70
2023-05-16T01:11:34.752Z,8.70
2023-05-16T01:14:26.792Z,8.70
2023-05-16T01:17:20.476Z,8.68
2023-05-16T01:20:15.386Z,8.70
2023-05-16T01:22:47.949Z,8.71
2023-05-16T01:25:36.712Z,8.69
2023-05-16T01:28:06.730Z,8.67
2023-05-16T01:30:44.050Z,8.67
2023-05-16T01:33:12.573Z,8.69
2023-05-16T01:35:59.929Z,8.70
2023-05-16T01:38:36.904Z,8.69
2023-05-16T01:41:28.150Z,8.69
2023-05-16T01:44:05.808Z,8.68
2023-05-16T01:46:41.525Z,8.68
2023-05-16T01:49:27.982Z,8.64
2023-05-16T01:52:02.189Z,8.61
2023-05-16T01:54:33.439Z,8.57
2023-05-16T01:57:08.244Z,8.55
2023-05-16T01:59:37.720Z,8.55
2023-05-16T02:02:06.203Z,8.57
2023-05-16T02:04:34.539Z,8.56
2023-05-16T02:07:03.024Z,8.53
2023-05-16T02:09:31.389Z,8.50
2023-05-16T02:12:01.246Z,8.49
2023-05-16T02:14:30.789Z,8.51
2023-05-16T02:16:59.158Z,8.52
2023-05-16T02:19:27.353Z,8.48
2023-05-16T02:21:55.594Z,8.47
2023-05-16T02:24:23.968Z,8.54
2023-05-16T02:26:52.181Z,8.55
2023-05-16T02:29:20.461Z,8.49
2023-05-16T02:31:48.728Z,8.49
2023-05-16T02:34:16.962Z,8.55
2023-05-16T02:36:45.479Z,8.59
2023-05-16T02:39:13.655Z,8.55
2023-05-16T02:41:41.986Z,8.50
2023-05-16T02:44:11.240Z,8.48
2023-05-16T02:46:39.789Z,8.50
2023-05-16T02:49:08.036Z,8.47
2023-05-16T02:51:36.442Z,8.46
2023-05-16T02:54:05.028Z,8.48
2023-05-16T02:56:33.337Z,8.49
2023-05-16T02:59:01.899Z,8.52
2023-05-16T03:01:30.706Z,8.59
2023-05-16T03:04:00.087Z,8.68
2023-05-16T03:06:28.513Z,8.79
2023-05-16T03:08:56.731Z,8.87
2023-05-16T03:11:26.137Z,8.90
2023-05-16T03:13:54.576Z,8.91
2023-05-16T03:16:22.976Z,8.91
2023-05-16T03:18:53.165Z,8.88
2023-05-16T03:21:21.580Z,8.87
2023-05-16T03:23:49.915Z,8.89
2023-05-16T03:26:18.372Z,8.91
2023-05-16T03:28:46.724Z,8.95
2023-05-16T03:31:15.256Z,8.98
2023-05-16T03:33:43.626Z,9.01
2023-05-16T03:36:12.100Z,9.06
2023-05-16T03:38:40.692Z,9.13
2023-05-16T03:41:08.959Z,9.18
2023-05-16T03:43:37.851Z,9.22
2023-05-16T03:46:06.154Z,9.24
2023-05-16T03:48:34.569Z,9.29
2023-05-16T03:51:02.795Z,9.36
2023-05-16T03:53:31.036Z,9.46
2023-05-16T03:55:59.878Z,9.55
2023-05-16T03:58:28.366Z,9.64
2023-05-16T04:00:56.560Z,9.71
2023-05-16T04:03:28.869Z,9.77
2023-05-16T04:05:57.673Z,9.83
2023-05-16T04:08:26.119Z,9.90
2023-05-16T04:10:54.667Z,9.99
2023-05-16T04:13:23.144Z,10.08
2023-05-16T04:15:51.498Z,10.15
2023-05-16T04:18:19.697Z,10.24
2023-05-16T04:20:48.070Z,10.35
2023-05-16T04:23:16.441Z,10.47
2023-05-16T04:25:44.930Z,10.60
2023-05-16T04:28:13.776Z,10.75
2023-05-16T04:30:42.107Z,10.92
2023-05-16T04:33:10.528Z,11.07
2023-05-16T04:35:39.866Z,11.24
2023-05-16T04:38:08.921Z,11.40
2023-05-16T04:40:37.903Z,11.55
2023-05-16T04:43:06.977Z,11.73
2023-05-16T04:45:37.493Z,11.89
2023-05-16T04:48:08.893Z,12.08
2023-05-16T04:50:37.376Z,12.26
2023-05-16T04:53:05.776Z,12.44
2023-05-16T04:55:40.906Z,12.62
2023-05-16T04:58:17.975Z,12.78
2023-05-16T05:00:53.523Z,12.93
2023-05-16T05:03:24.520Z,13.05
2023-05-16T05:06:04.118Z,13.13
2023-05-16T05:08:56.084Z,13.27
2023-05-16T05:11:33.899Z,13.46
2023-05-16T05:14:05.375Z,13.65
2023-05-16T05:16:39.651Z,13.76
2023-05-16T05:19:16.347Z,13.81
2023-05-16T05:21:52.680Z,13.84
2023-05-16T05:24:35.063Z,13.90
2023-05-16T05:27:15.264Z,14.08
2023-05-16T05:29:48.710Z,14.27
2023-05-16T05:32:38.329Z,14.40
2023-05-16T05:35:11.420Z,14.51
2023-05-16T05:37:41.113Z,14.69
2023-05-16T05:40:09.769Z,14.89
2023-05-16T05:42:38.182Z,15.09
2023-05-16T05:45:09.177Z,15.28
2023-05-16T05:47:50.165Z,15.40
2023-05-16T05:50:22.222Z,15.50
2023-05-16T05:53:20.052Z,15.62
2023-05-16T05:55:56.676Z,15.76
2023-05-16T05:58:30.277Z,15.88
2023-05-16T06:01:05.727Z,16.00
2023-05-16T06:03:44.107Z,16.12
2023-05-16T06:06:28.233Z,16.39
2023-05-16T06:09:11.093Z,16.63
2023-05-16T06:11:57.664Z,16.84
2023-05-16T06:14:51.095Z,17.03
2023-05-16T06:17:19.517Z,17.13
2023-05-16T06:19:48.081Z,17.23
2023-05-16T06:22:16.455Z,17.30
2023-05-16T06:24:44.769Z,17.37
2023-05-16T06:27:13.066Z,17.39
2023-05-16T06:29:43.557Z,17.38
2023-05-16T06:32:25.570Z,17.45
2023-05-16T06:35:08.783Z,17.52
2023-05-16T06:37:57.088Z,17.55
2023-05-16T06:40:54.675Z,17.59
2023-05-16T06:43:33.817Z,17.60
2023-05-16T06:46:16.990Z,17.58
2023-05-16T06:48:49.523Z,17.63
2023-05-16T06:51:17.851Z,17.69
2023-05-16T06:53:46.545Z,17.71
2023-05-16T06:56:14.918Z,17.70
2023-05-16T06:58:43.205Z,17.76
2023-05-16T07:01:17.865Z,17.79
2023-05-16T07:04:03.373Z,17.84
2023-05-16T07:06:36.103Z,17.88
2023-05-16T07:09:12.451Z,17.96
2023-05-16T07:11:55.817Z,18.03
2023-05-16T07:14:24.356Z,18.10
2023-05-16T07:16:53.308Z,18.23
2023-05-16T07:19:21.822Z,18.29
2023-05-16T07:21:50.465Z,18.30
2023-05-16T07:24:18.843Z,18.31
2023-05-16T07:26:50.375Z,18.30
2023-05-16T07:29:27.402Z,18.33
2023-05-16T07:32:27.493Z,18.35
2023-05-16T07:35:00.726Z,18.37
2023-05-16T07:37:41.091Z,18.38
2023-05-16T07:40:22.033Z,18.35
2023-05-16T07:43:05.974Z,18.41
2023-05-16T07:45:41.851Z,18.49
2023-05-16T07:48:14.019Z,18.57
2023-05-16T07:50:53.217Z,18.66
2023-05-16T07:53:36.269Z,18.73
2023-05-16T07:56:13.696Z,18.89
2023-05-16T07:58:45.078Z,19.00
2023-05-16T08:01:24.376Z,19.06
2023-05-16T08:04:05.535Z,19.02
2023-05-16T08:07:03.257Z,18.98
2023-05-16T08:09:51.241Z,19.01
2023-05-16T08:12:30.396Z,19.04
2023-05-16T08:15:05.137Z,19.08
2023-05-16T08:17:47.566Z,19.19
2023-05-16T08:20:19.817Z,19.40
2023-05-16T08:22:48.732Z,19.55
2023-05-16T08:25:28.732Z,19.80
2023-05-16T08:28:04.191Z,20.03
2023-05-16T08:30:36.662Z,20.15
2023-05-16T08:33:21.994Z,20.16
2023-05-16T08:36:00.651Z,20.21
2023-05-16T08:38:44.755Z,20.23
2023-05-16T08:41:19.794Z,20.24
2023-05-16T08:44:31.014Z,20.28
2023-05-16T08:47:31.173Z,20.41
2023-05-16T08:50:12.665Z,20.49
2023-05-16T08:52:48.566Z,20.56
2023-05-16T08:55:22.201Z,20.68
2023-05-16T08:58:03.549Z,20.89
2023-05-16T09:00:37.550Z,21.20
2023-05-16T09:03:13.337Z,21.46
2023-05-16T09:05:43.373Z,21.52
2023-05-16T09:08:11.997Z,21.56
2023-05-16T09:11:01.753Z,21.59
2023-05-16T09:13:35.738Z,21.70
2023-05-16T09:16:23.652Z,21.87
2023-05-16T09:19:00.213Z,21.84
2023-05-16T09:21:31.939Z,21.85
2023-05-16T09:24:14.316Z,22.01
2023-05-16T09:27:05.351Z,22.25
2023-05-16T09:29:44.134Z,22.40
2023-05-16T09:32:17.883Z,22.31
2023-05-16T09:34:49.506Z,22.42
2023-05-16T09:37:19.165Z,22.49
2023-05-16T09:39:50.372Z,22.62
2023-05-16T09:42:20.204Z,22.82
2023-05-16T09:44:54.577Z,23.04
2023-05-16T09:47:22.956Z,23.08
2023-05-16T09:49:54.671Z,23.06
2023-05-16T09:52:26.803Z,23.03
2023-05-16T09:54:55.116Z,22.94
2023-05-16T09:57:23.793Z,22.85
2023-05-16T09:59:54.303Z,22.87
2023-05-16T10:02:23.457Z,22.75
2023-05-16T10:05:07.230Z,22.62
2023-05-16T10:07:40.127Z,22.45
2023-05-16T10:10:16.579Z,22.34
2023-05-16T10:12:52.770Z,22.35
2023-05-16T10:15:22.996Z,22.27
2023-05-16T10:17:53.807Z,22.30
2023-05-16T10:20:26.697Z,22.41
2023-05-16T10:23:06.651Z,22.49
2023-05-16T10:25:48.123Z,22.47
2023-05-16T10:28:30.763Z,22.37
2023-05-16T10:31:03.408Z,22.26
2023-05-16T10:33:38.978Z,22.21
2023-05-16T10:36:16.993Z,22.21
2023-05-16T10:39:04.943Z,22.22
2023-05-16T10:41:44.969Z,22.21
2023-05-16T10:44:20.233Z,22.23
2023-05-16T10:46:49.027Z,22.28
2023-05-16T10:49:34.320Z,22.38
2023-05-16T10:52:12.529Z,22.43
2023-05-16T10:54:43.741Z,22.38
2023-05-16T10:57:23.069Z,22.33
2023-05-16T11:00:02.069Z,22.40
2023-05-16T11:02:34.181Z,22.43
2023-05-16T11:05:12.396Z,22.41
2023-05-16T11:08:07.741Z,22.38
2023-05-16T11:10:58.878Z,22.37
2023-05-16T11:13:39.435Z,22.36
2023-05-16T11:16:34.950Z,22.35
2023-05-16T11:19:11.790Z,22.31
2023-05-16T11:22:21.777Z,22.20
2023-05-16T11:25:00.146Z,21.91
2023-05-16T11:30:31.459Z,21.41
2023-05-16T11:33:04.029Z,21.28
2023-05-16T11:35:36.614Z,21.15
2023-05-16T11:38:19.672Z,21.04
2023-05-16T11:40:54.723Z,20.94
2023-05-16T11:43:44.997Z,20.85
2023-05-16T11:46:19.790Z,20.76
2023-05-16T11:48:49.328Z,20.70
2023-05-16T11:51:20.406Z,20.65
2023-05-16T11:53:53.563Z,20.58
2023-05-16T11:56:29.135Z,20.47
2023-05-16T11:59:15.674Z,20.40
2023-05-16T12:01:56.275Z,20.35
2023-05-16T12:04:54.685Z,20.32
2023-05-16T12:07:35.660Z,20.31
2023-05-16T12:10:10.754Z,20.30
2023-05-16T12:12:53.736Z,20.26
2023-05-16T12:15:26.196Z,20.17
2023-05-16T12:17:58.586Z,20.08
2023-05-16T12:20:35.011Z,19.98
2023-05-16T12:23:25.180Z,19.90
2023-05-16T12:26:02.026Z,19.82
2023-05-16T12:28:40.166Z,19.71
2023-05-16T12:31:31.072Z,19.63
2023-05-16T12:34:00.533Z,19.60
2023-05-16T12:36:44.606Z,19.57
2023-05-16T12:39:14.393Z,19.52
2023-05-16T12:41:43.414Z,19.49
2023-05-16T12:44:23.713Z,19.47
2023-05-16T12:46:53.022Z,19.46
2023-05-16T12:49:25.534Z,19.46
2023-05-16T12:51:56.359Z,19.46
2023-05-16T12:54:25.688Z,19.47
2023-05-16T12:56:54.046Z,19.48
2023-05-16T12:59:22.386Z,19.47
2023-05-16T13:01:51.148Z,19.45
2023-05-16T13:04:20.638Z,19.43
2023-05-16T13:06:59.234Z,19.41
2023-05-16T13:09:32.002Z,19.42
2023-05-16T13:12:01.170Z,19.43
2023-05-16T13:14:29.653Z,19.41
2023-05-16T13:16:58.311Z,19.41
2023-05-16T13:19:26.882Z,19.43
2023-05-16T13:21:56.413Z,19.45
2023-05-16T13:24:24.669Z,19.47
2023-05-16T13:26:53.813Z,19.48
2023-05-16T13:29:22.288Z,19.48
2023-05-16T13:31:50.706Z,19.44
2023-05-16T13:34:19.122Z,19.40
2023-05-16T13:36:54.390Z,19.36
2023-05-16T13:39:24.017Z,19.29
2023-05-16T13:41:53.320Z,19.20
2023-05-16T13:44:22.837Z,19.12
2023-05-16T13:46:51.493Z,19.03
2023-05-16T13:49:19.978Z,18.96
2023-05-16T13:51:48.307Z,18.89
2023-05-16T13:54:17.317Z,18.82
2023-05-16T13:56:46.381Z,18.75
2023-05-16T13:59:18.508Z,18.72
2023-05-16T14:01:49.424Z,18.71
2023-05-16T14:04:18.039Z,18.72
2023-05-16T14:06:46.553Z,18.73
2023-05-16T14:09:15.651Z,18.75
2023-05-16T14:11:44.556Z,18.77
2023-05-16T14:14:12.917Z,18.79
2023-05-16T14:16:45.944Z,18.82
2023-05-16T14:19:17.326Z,18.83
2023-05-16T14:21:46.783Z,18.78
2023-05-16T14:24:15.050Z,18.69
2023-05-16T14:26:43.420Z,18.62
2023-05-16T14:29:13.142Z,18.59
2023-05-16T14:31:41.654Z,18.51
2023-05-16T14:34:10.024Z,18.39
2023-05-16T14:36:38.537Z,18.25
2023-05-16T14:39:06.847Z,18.15
2023-05-16T14:41:35.347Z,18.07
2023-05-16T14:44:03.776Z,17.99
2023-05-16T14:46:32.342Z,17.89
2023-05-16T14:49:00.734Z,17.79
2023-05-16T14:51:29.120Z,17.70
2023-05-16T14:53:57.453Z,17.64
2023-05-16T14:56:27.546Z,17.62
2023-05-16T14:58:55.844Z,17.60
2023-05-16T15:01:24.228Z,17.57
2023-05-16T15:03:55.835Z,17.53
2023-05-16T15:06:25.316Z,17.46
2023-05-16T15:08:53.841Z,17.37
2023-05-16T15:11:22.209Z,17.31
2023-05-16T15:13:50.655Z,17.24
2023-05-16T15:16:18.967Z,17.14
2023-05-16T15:18:47.342Z,17.06
2023-05-16T15:21:16.206Z,16.97
2023-05-16T15:23:44.519Z,16.85
2023-05-16T15:26:12.716Z,16.72
2023-05-16T15:28:41.102Z,16.63
2023-05-16T15:31:09.397Z,16.56
2023-05-16T15:33:37.911Z,16.49
2023-05-16T15:36:06.746Z,16.44
2023-05-16T15:38:35.506Z,16.39
2023-05-16T15:43:42.536Z,16.22
2023-05-16T15:46:11.360Z,16.12
2023-05-16T15:48:42.986Z,16.05
2023-05-16T15:51:13.157Z,15.99
2023-05-16T15:53:41.533Z,15.93
2023-05-16T15:56:09.939Z,15.87
2023-05-16T15:58:38.397Z,15.80
2023-05-16T16:01:06.701Z,15.72
2023-05-16T16:03:35.166Z,15.67
2023-05-16T16:06:05.439Z,15.62
2023-05-16T16:08:33.774Z,15.55
2023-05-16T16:11:02.103Z,15.49
2023-05-16T16:13:31.393Z,15.45
2023-05-16T16:15:59.764Z,15.38
2023-05-16T16:18:28.536Z,15.33
2023-05-16T16:20:56.992Z,15.29
2023-05-16T16:23:25.433Z,15.28
2023-05-16T16:25:53.721Z,15.26
2023-05-16T16:28:22.678Z,15.23
2023-05-16T16:30:51.316Z,15.21
2023-05-16T16:33:19.768Z,15.20
2023-05-16T16:35:48.337Z,15.18
2023-05-16T16:38:17.691Z,15.15
2023-05-16T16:40:46.014Z,15.12
2023-05-16T16:43:17.350Z,15.11
2023-05-16T16:45:45.717Z,15.08
2023-05-16T16:48:14.115Z,15.05
2023-05-16T16:50:43.548Z,15.03
2023-05-16T16:53:12.018Z,15.01
2023-05-16T16:55:41.046Z,15.01
2023-05-16T16:58:09.618Z,15.00
2023-05-16T17:00:37.965Z,14.99
2023-05-16T17:03:06.610Z,14.98
2023-05-16T17:05:35.217Z,14.96
2023-05-16T17:08:04.020Z,14.96
2023-05-16T17:10:32.580Z,14.96
2023-05-16T17:13:07.256Z,14.95
2023-05-16T17:15:36.040Z,14.94
2023-05-16T17:18:08.417Z,14.90
2023-05-16T17:20:36.941Z,14.86
2023-05-16T17:23:05.523Z,14.84
2023-05-16T17:25:33.891Z,14.78
2023-05-16T17:28:02.793Z,14.72
2023-05-16T17:30:31.108Z,14.67
2023-05-16T17:32:59.367Z,14.62
2023-05-16T17:35:28.091Z,14.56
2023-05-16T17:37:56.691Z,14.49
2023-05-16T17:40:24.986Z,14.47
2023-05-16T17:42:53.444Z,14.45
2023-05-16T17:45:21.744Z,14.45
2023-05-16T17:47:50.264Z,14.42
2023-05-16T17:50:20.278Z,14.38
2023-05-16T17:52:48.561Z,14.34
2023-05-16T17:55:16.914Z,14.32
2023-05-16T17:57:45.705Z,14.29
2023-05-16T18:00:15.090Z,14.29
2023-05-16T18:02:44.789Z,14.27
2023-05-16T18:05:16.494Z,14.26
2023-05-16T18:07:44.920Z,14.25
2023-05-16T18:10:13.747Z,14.23
2023-05-16T18:12:42.880Z,14.22
2023-05-16T18:15:12.754Z,14.21
2023-05-16T18:17:41.233Z,14.21
2023-05-16T18:20:11.056Z,14.20
2023-05-16T18:22:39.741Z,14.16
2023-05-16T18:25:10.099Z,14.15
2023-05-16T18:27:39.933Z,14.15
2023-05-16T18:30:10.944Z,14.14
2023-05-16T18:32:40.091Z,14.13
2023-05-16T18:35:09.295Z,14.12
2023-05-16T18:37:37.668Z,14.11
2023-05-16T18:40:07.201Z,14.10
2023-05-16T18:42:35.637Z,14.09
2023-05-16T18:45:04.458Z,14.08
2023-05-16T18:47:32.950Z,14.07
2023-05-16T18:50:01.527Z,14.05
2023-05-16T18:52:29.867Z,14.04
2023-05-16T18:54:58.750Z,14.02
2023-05-16T18:57:27.186Z,14.01
2023-05-16T18:59:56.815Z,14.00
2023-05-16T19:02:38.022Z,13.99
2023-05-16T19:07:56.587Z,13.94
2023-05-16T19:10:25.660Z,13.94
2023-05-16T19:12:54.484Z,13.96
2023-05-16T19:15:23.065Z,13.96
2023-05-16T19:17:51.554Z,13.97
2023-05-16T19:20:19.919Z,13.96
2023-05-16T19:22:48.203Z,13.95
2023-05-16T19:25:16.550Z,13.95
2023-05-16T19:27:44.866Z,13.95
2023-05-16T19:30:13.404Z,13.95
2023-05-16T19:32:41.863Z,13.94
2023-05-16T19:35:10.868Z,13.94
2023-05-16T19:37:39.225Z,13.93
2023-05-16T19:40:08.629Z,13.93
2023-05-16T19:42:36.907Z,13.92
2023-05-16T19:45:05.741Z,13.92
2023-05-16T19:47:34.172Z,13.91
2023-05-16T19:50:03.236Z,13.91
2023-05-16T19:52:31.718Z,13.89
2023-05-16T19:55:00.153Z,13.89
2023-05-16T19:57:28.685Z,13.88
2023-05-16T19:59:57.047Z,13.87
2023-05-16T20:02:25.453Z,13.87
2023-05-16T20:04:54.024Z,13.86
2023-05-16T20:07:23.195Z,13.85
2023-05-16T20:09:51.583Z,13.85
2023-05-16T20:12:19.902Z,13.83
2023-05-16T20:14:48.266Z,13.82
2023-05-16T20:17:16.676Z,13.81
2023-05-16T20:19:45.581Z,13.79
2023-05-16T20:22:13.934Z,13.78
2023-05-16T20:24:42.294Z,13.77
2023-05-16T20:27:10.722Z,13.75
2023-05-16T20:29:38.936Z,13.74
2023-05-16T20:32:07.460Z,13.73
2023-05-16T20:34:35.810Z,13.73
2023-05-16T20:37:04.316Z,13.73
2023-05-16T20:39:33.248Z,13.73
2023-05-16T20:42:01.549Z,13.73
2023-05-16T20:44:30.055Z,13.72
2023-05-16T20:46:58.366Z,13.72
2023-05-16T20:49:26.606Z,13.72
2023-05-16T20:51:54.833Z,13.73
2023-05-16T20:54:23.120Z,13.74
2023-05-16T20:56:51.409Z,13.76
2023-05-16T20:59:19.734Z,13.77
2023-05-16T21:01:48.259Z,13.77
2023-05-16T21:04:16.910Z,13.77
2023-05-16T21:06:45.469Z,13.77
2023-05-16T21:09:13.752Z,13.76
2023-05-16T21:11:42.081Z,13.77
2023-05-16T21:14:10.444Z,13.77
2023-05-16T21:16:38.754Z,13.77
2023-05-16T21:19:07.202Z,13.77
2023-05-16T21:21:35.411Z,13.75
2023-05-16T21:24:04.583Z,13.71
2023-05-16T21:26:32.942Z,13.68
2023-05-16T21:29:01.477Z,13.66
2023-05-16T21:31:29.954Z,13.62
2023-05-16T21:33:58.274Z,13.60
2023-05-16T21:36:26.651Z,13.60
2023-05-16T21:38:55.096Z,13.59
2023-05-16T21:41:29.086Z,13.59
2023-05-16T21:43:57.483Z,13.60
2023-05-16T21:46:26.453Z,13.60
2023-05-16T21:48:54.769Z,13.60
2023-05-16T21:51:23.231Z,13.59
2023-05-16T21:53:51.507Z,13.59
2023-05-16T21:56:19.896Z,13.59
2023-05-16T21:58:48.317Z,13.59
2023-05-16T22:01:17.075Z,13.58
2023-05-16T22:03:45.471Z,13.57
2023-05-16T22:06:13.870Z,13.57
2023-05-16T22:08:45.018Z,13.56
2023-05-16T22:11:13.572Z,13.56
2023-05-16T22:13:41.960Z,13.55
2023-05-16T22:16:11.228Z,13.53
2023-05-16T22:18:39.755Z,13.53
2023-05-16T22:21:08.358Z,13.53
2023-05-16T22:23:36.638Z,13.52
2023-05-16T22:26:05.381Z,13.51
2023-05-16T22:28:33.787Z,13.51
2023-05-16T22:31:02.005Z,13.51
2023-05-16T22:33:30.609Z,13.50
2023-05-16T22:35:59.047Z,13.48
2023-05-16T22:38:27.257Z,13.46
2023-05-16T22:40:56.022Z,13.46
2023-05-16T22:43:24.423Z,13.46
2023-05-16T22:45:52.765Z,13.45
2023-05-16T22:48:21.089Z,13.46
2023-05-16T22:50:49.586Z,13.47
2023-05-16T22:53:17.791Z,13.48
2023-05-16T22:55:46.338Z,13.49
2023-05-16T22:58:14.523Z,13.50
2023-05-16T23:00:42.774Z,13.50
2023-05-16T23:03:11.283Z,13.51
2023-05-16T23:05:39.733Z,13.50
2023-05-16T23:08:08.074Z,13.50
2023-05-16T23:10:37.115Z,13.50
2023-05-16T23:13:05.654Z,13.50
2023-05-16T23:15:33.885Z,13.49
2023-05-16T23:18:02.530Z,13.48
2023-05-16T23:20:30.935Z,13.48
2023-05-16T23:23:00.991Z,13.47
2023-05-16T23:25:29.663Z,13.46
2023-05-16T23:27:58.290Z,13.46
2023-05-16T23:30:26.814Z,13.44
2023-05-16T23:32:55.383Z,13.43
2023-05-16T23:35:23.690Z,13.42
2023-05-16T23:37:52.016Z,13.41
2023-05-16T23:40:20.299Z,13.39
2023-05-16T23:42:48.621Z,13.35
2023-05-16T23:45:16.862Z,13.34
2023-05-16T23:47:45.999Z,13.34
2023-05-16T23:50:16.355Z,13.34
2023-05-16T23:52:44.647Z,13.34
2023-05-16T23:55:13.502Z,13.33
2023-05-16T23:57:41.747Z,13.31
